createdAt,value
2023-03-24T00:00:11.176Z,1.10
2023-03-24T00:02:41.968Z,1.30
2023-03-24T00:05:11.300Z,0.90
2023-03-24T00:07:39.714Z,1.00
2023-03-24T00:10:09.752Z,1.20
2023-03-24T00:12:38.890Z,1.00
2023-03-24T00:15:08.390Z,0.90
2023-03-24T00:17:36.688Z,1.02
2023-03-24T00:20:16.931Z,1.00
2023-03-24T00:22:49.589Z,0.90
2023-03-24T00:25:23.747Z,0.68
2023-03-24T00:27:51.544Z,0.82
2023-03-24T00:30:19.359Z,1.00
2023-03-24T00:32:46.523Z,0.88
2023-03-24T00:35:16.322Z,0.95
2023-03-24T00:37:44.643Z,0.85
2023-03-24T00:40:14.667Z,1.10
2023-03-24T00:42:41.554Z,0.65
2023-03-24T00:45:09.445Z,1.10
2023-03-24T00:47:38.033Z,1.02
2023-03-24T00:50:07.592Z,1.20
2023-03-24T00:52:34.335Z,1.20
2023-03-24T00:55:04.006Z,1.15
2023-03-24T00:57:35.060Z,1.10
2023-03-24T01:00:12.603Z,1.27
2023-03-24T01:02:39.166Z,1.40
2023-03-24T01:05:06.685Z,1.55
2023-03-24T01:07:33.599Z,1.90
2023-03-24T01:10:00.372Z,2.53
2023-03-24T01:12:32.843Z,2.17
2023-03-24T01:15:00.947Z,2.05
2023-03-24T01:17:27.619Z,2.40
2023-03-24T01:19:54.494Z,2.25
2023-03-24T01:22:21.722Z,2.25
2023-03-24T01:24:49.137Z,2.00
2023-03-24T01:27:16.275Z,2.10
2023-03-24T01:29:42.900Z,2.25
2023-03-24T01:32:09.652Z,2.00
2023-03-24T01:34:36.250Z,2.28
2023-03-24T01:37:02.955Z,2.17
2023-03-24T01:39:30.040Z,2.45
2023-03-24T01:41:56.960Z,2.65
2023-03-24T01:44:31.170Z,3.30
2023-03-24T01:46:58.223Z,2.53
2023-03-24T01:49:29.667Z,2.70
2023-03-24T01:52:00.701Z,2.47
2023-03-24T01:54:33.659Z,2.80
2023-03-24T01:57:10.275Z,2.70
2023-03-24T01:59:41.733Z,2.08
2023-03-24T02:02:27.348Z,2.63
2023-03-24T02:05:03.718Z,1.92
2023-03-24T02:08:01.677Z,2.33
2023-03-24T02:10:33.191Z,2.40
2023-03-24T02:12:59.919Z,2.25
2023-03-24T02:15:29.957Z,1.88
2023-03-24T02:18:19.037Z,2.60
2023-03-24T02:21:04.362Z,2.55
2023-03-24T02:23:42.645Z,2.42
2023-03-24T02:26:37.367Z,3.05
2023-03-24T02:29:27.836Z,2.85
2023-03-24T02:32:25.107Z,3.10
2023-03-24T02:35:12.685Z,2.70
2023-03-24T02:37:49.250Z,2.70
2023-03-24T02:40:32.303Z,2.70
2023-03-24T02:43:26.901Z,2.70
2023-03-24T02:46:13.738Z,2.90
2023-03-24T02:49:24.529Z,3.05
2023-03-24T02:52:01.665Z,2.40
2023-03-24T02:54:53.380Z,2.65
2023-03-24T02:57:28.796Z,2.65
2023-03-24T03:00:32.419Z,2.45
2023-03-24T03:03:28.772Z,2.90
2023-03-24T03:06:06.973Z,2.60
2023-03-24T03:08:34.703Z,2.90
2023-03-24T03:11:05.952Z,2.28
2023-03-24T03:13:38.985Z,2.10
2023-03-24T03:16:10.203Z,2.85
2023-03-24T03:18:43.343Z,3.03
2023-03-24T03:21:15.401Z,2.72
2023-03-24T03:23:47.824Z,3.00
2023-03-24T03:26:18.018Z,2.42
2023-03-24T03:28:50.758Z,2.42
2023-03-24T03:31:29.718Z,2.50
2023-03-24T03:34:09.741Z,2.20
2023-03-24T03:36:47.478Z,2.45
2023-03-24T03:39:22.334Z,2.50
2023-03-24T03:41:48.975Z,2.50
2023-03-24T03:44:16.014Z,2.83
2023-03-24T03:46:43.013Z,2.83
2023-03-24T03:49:14.857Z,2.72
2023-03-24T03:51:41.405Z,2.50
2023-03-24T03:54:12.591Z,2.10
2023-03-24T03:56:39.836Z,2.30
2023-03-24T03:59:35.417Z,2.50
2023-03-24T04:02:28.419Z,1.95
2023-03-24T04:05:14.113Z,2.00
2023-03-24T04:08:18.686Z,2.03
2023-03-24T04:11:29.045Z,1.85
2023-03-24T04:14:14.209Z,1.67
2023-03-24T04:16:52.080Z,2.08
2023-03-24T04:19:45.691Z,2.58
2023-03-24T04:22:46.024Z,1.98
2023-03-24T04:25:56.702Z,2.20
2023-03-24T04:28:32.275Z,2.38
2023-03-24T04:31:34.967Z,2.88
2023-03-24T04:34:15.677Z,3.13
2023-03-24T04:36:50.471Z,3.55
2023-03-24T04:39:28.964Z,3.58
2023-03-24T04:42:01.748Z,3.17
2023-03-24T04:44:33.072Z,2.55
2023-03-24T04:47:22.874Z,2.70
2023-03-24T04:50:07.801Z,1.92
2023-03-24T04:52:34.340Z,2.13
2023-03-24T04:55:05.230Z,2.13
2023-03-24T04:57:31.704Z,2.35
2023-03-24T05:00:08.197Z,1.70
2023-03-24T05:02:34.962Z,2.20
2023-03-24T05:05:09.902Z,1.90
2023-03-24T05:07:42.460Z,1.70
2023-03-24T05:10:11.826Z,1.98
2023-03-24T05:12:43.984Z,1.85
2023-03-24T05:15:16.687Z,1.52
2023-03-24T05:17:43.926Z,2.00
2023-03-24T05:20:11.412Z,2.33
2023-03-24T05:22:40.940Z,2.30
2023-03-24T05:25:08.160Z,1.90
2023-03-24T05:27:34.763Z,2.22
2023-03-24T05:30:13.281Z,2.15
2023-03-24T05:32:40.888Z,1.85
2023-03-24T05:35:08.278Z,2.28
2023-03-24T05:37:34.913Z,2.00
2023-03-24T05:40:02.692Z,2.00
2023-03-24T05:42:42.939Z,2.40
2023-03-24T05:45:11.795Z,2.47
2023-03-24T05:47:38.824Z,2.30
2023-03-24T05:50:06.337Z,1.83
2023-03-24T05:52:34.218Z,2.08
2023-03-24T05:55:16.878Z,2.20
2023-03-24T05:57:43.533Z,2.45
2023-03-24T06:00:31.697Z,2.63
2023-03-24T06:03:06.383Z,2.67
2023-03-24T06:05:48.097Z,2.72
2023-03-24T06:08:16.886Z,2.75
2023-03-24T06:10:43.497Z,2.47
2023-03-24T06:13:10.004Z,2.90
2023-03-24T06:15:42.868Z,3.47
2023-03-24T06:18:30.516Z,2.83
2023-03-24T06:21:00.310Z,2.92
2023-03-24T06:23:29.872Z,3.53
2023-03-24T06:26:11.548Z,2.53
2023-03-24T06:28:57.307Z,1.92
2023-03-24T06:31:27.725Z,2.90
2023-03-24T06:33:54.487Z,2.80
2023-03-24T06:36:23.474Z,2.58
2023-03-24T06:38:51.218Z,2.70
2023-03-24T06:41:20.613Z,2.53
2023-03-24T06:43:51.108Z,2.47
2023-03-24T06:46:17.949Z,2.35
2023-03-24T06:48:46.983Z,2.05
2023-03-24T06:51:13.529Z,2.20
2023-03-24T06:53:41.347Z,2.53
2023-03-24T06:56:08.217Z,2.22
2023-03-24T06:58:41.143Z,2.40
2023-03-24T07:01:11.431Z,2.20
2023-03-24T07:03:44.612Z,2.65
2023-03-24T07:06:35.979Z,2.20
2023-03-24T07:09:12.384Z,2.50
2023-03-24T07:11:39.341Z,2.17
2023-03-24T07:14:05.922Z,2.35
2023-03-24T07:16:34.124Z,2.22
2023-03-24T07:19:23.705Z,2.50
2023-03-24T07:22:02.089Z,1.75
2023-03-24T07:24:45.277Z,2.47
2023-03-24T07:27:39.418Z,2.83
2023-03-24T07:30:09.158Z,2.30
2023-03-24T07:32:44.135Z,2.30
2023-03-24T07:35:12.904Z,2.40
2023-03-24T07:37:39.961Z,2.25
2023-03-24T07:40:12.070Z,2.30
2023-03-24T07:42:39.944Z,2.42
2023-03-24T07:45:17.511Z,2.53
2023-03-24T07:47:46.066Z,2.65
2023-03-24T07:50:14.567Z,2.10
2023-03-24T07:52:43.676Z,2.08
2023-03-24T07:55:12.068Z,2.20
2023-03-24T07:58:04.974Z,1.98
2023-03-24T08:00:32.894Z,2.42
2023-03-24T08:03:27.831Z,1.60
2023-03-24T08:06:08.301Z,1.50
2023-03-24T08:08:44.712Z,1.55
2023-03-24T08:11:11.306Z,1.92
2023-03-24T08:13:37.754Z,1.60
2023-03-24T08:16:04.701Z,1.65
2023-03-24T08:18:35.028Z,1.35
2023-03-24T08:21:02.183Z,1.42
2023-03-24T08:23:28.916Z,1.52
2023-03-24T08:25:55.534Z,1.35
2023-03-24T08:28:22.240Z,1.60
2023-03-24T08:30:49.092Z,1.10
2023-03-24T08:33:16.341Z,0.95
2023-03-24T08:35:42.930Z,0.93
2023-03-24T08:38:11.621Z,0.80
2023-03-24T08:40:40.318Z,0.98
2023-03-24T08:43:08.922Z,0.70
2023-03-24T08:45:35.781Z,0.65
2023-03-24T08:48:05.602Z,0.77
2023-03-24T08:50:38.754Z,0.65
2023-03-24T08:53:05.723Z,0.60
2023-03-24T08:55:32.534Z,0.70
2023-03-24T08:57:59.057Z,0.82
2023-03-24T09:00:25.750Z,0.60
2023-03-24T09:02:55.620Z,0.65
2023-03-24T09:05:37.174Z,0.45
2023-03-24T09:08:11.508Z,0.50
2023-03-24T09:10:39.355Z,0.50
2023-03-24T09:13:06.109Z,0.52
2023-03-24T09:15:33.337Z,0.50
2023-03-24T09:18:00.175Z,0.40
2023-03-24T09:20:27.259Z,0.50
2023-03-24T09:22:53.801Z,0.50
2023-03-24T09:25:20.955Z,0.50
2023-03-24T09:27:48.113Z,0.40
2023-03-24T09:30:16.906Z,0.40
2023-03-24T09:32:44.757Z,0.28
2023-03-24T09:35:12.055Z,0.60
2023-03-24T09:37:39.072Z,0.57
2023-03-24T09:40:07.827Z,0.40
2023-03-24T09:42:38.605Z,0.52
2023-03-24T09:45:13.036Z,0.50
2023-03-24T09:47:42.741Z,0.40
2023-03-24T09:50:22.832Z,0.40
2023-03-24T09:52:54.334Z,0.50
2023-03-24T09:55:29.078Z,0.65
2023-03-24T09:58:05.018Z,0.50
2023-03-24T10:00:32.915Z,0.50
2023-03-24T10:03:11.560Z,0.45
2023-03-24T10:05:44.143Z,0.60
2023-03-24T10:08:36.318Z,0.50
2023-03-24T10:11:31.869Z,0.68
2023-03-24T10:14:13.923Z,0.70
2023-03-24T10:16:50.876Z,0.88
2023-03-24T10:19:28.468Z,0.70
2023-03-24T10:22:10.511Z,0.70
2023-03-24T10:24:53.726Z,0.68
2023-03-24T10:27:33.221Z,0.90
2023-03-24T10:30:29.994Z,0.85
2023-03-24T10:32:56.793Z,0.60
2023-03-24T10:35:32.022Z,1.17
2023-03-24T10:38:00.989Z,1.08
2023-03-24T10:40:33.650Z,1.10
2023-03-24T10:43:06.752Z,1.00
2023-03-24T10:45:39.411Z,1.20
2023-03-24T10:48:07.358Z,1.10
2023-03-24T10:50:36.135Z,1.02
2023-03-24T10:53:15.627Z,1.00
2023-03-24T10:55:44.024Z,1.40
2023-03-24T10:58:40.638Z,1.20
2023-03-24T11:01:30.833Z,1.23
2023-03-24T11:04:05.032Z,1.38
2023-03-24T11:06:32.481Z,1.40
2023-03-24T11:09:21.254Z,1.25
2023-03-24T11:11:48.561Z,1.20
2023-03-24T11:14:33.066Z,1.27
2023-03-24T11:17:11.796Z,1.30
2023-03-24T11:19:39.136Z,1.67
2023-03-24T11:22:07.378Z,1.52
2023-03-24T11:24:38.349Z,1.40
2023-03-24T11:27:05.048Z,1.30
2023-03-24T11:29:39.795Z,1.77
2023-03-24T11:32:45.239Z,1.40
2023-03-24T11:35:17.743Z,1.20
2023-03-24T11:37:46.259Z,1.33
2023-03-24T11:40:12.635Z,1.27
2023-03-24T11:42:58.720Z,1.38
2023-03-24T11:45:45.879Z,1.40
2023-03-24T11:48:45.646Z,1.40
2023-03-24T11:51:19.293Z,1.75
2023-03-24T11:53:50.897Z,1.40
2023-03-24T11:56:25.602Z,1.40
2023-03-24T11:59:03.784Z,1.58
2023-03-24T12:01:38.800Z,1.40
2023-03-24T12:04:28.777Z,1.30
2023-03-24T12:07:30.728Z,1.27
2023-03-24T12:10:11.159Z,1.60
2023-03-24T12:12:56.453Z,1.25
2023-03-24T12:15:47.850Z,1.38
2023-03-24T12:18:37.755Z,1.30
2023-03-24T12:21:24.220Z,1.10
2023-03-24T12:24:39.494Z,1.10
2023-03-24T12:27:15.683Z,1.13
2023-03-24T12:29:54.006Z,1.20
2023-03-24T12:32:39.105Z,1.13
2023-03-24T12:35:47.079Z,1.05
2023-03-24T12:38:52.528Z,1.17
2023-03-24T12:41:30.864Z,1.30
2023-03-24T12:44:31.168Z,1.33
2023-03-24T12:47:30.135Z,1.38
2023-03-24T12:50:16.943Z,1.15
2023-03-24T12:53:14.021Z,1.02
2023-03-24T12:55:53.411Z,1.15
2023-03-24T12:58:38.654Z,0.80
2023-03-24T13:01:29.789Z,1.20
2023-03-24T13:04:08.902Z,1.10
2023-03-24T13:06:48.442Z,1.15
2023-03-24T13:09:36.637Z,1.35
2023-03-24T13:12:10.310Z,1.30
2023-03-24T13:14:49.485Z,1.67
2023-03-24T13:17:43.802Z,1.48
2023-03-24T13:20:34.664Z,1.25
2023-03-24T13:23:14.120Z,1.58
2023-03-24T13:25:53.728Z,1.38
2023-03-24T13:28:32.955Z,1.10
2023-03-24T13:31:02.303Z,1.67
2023-03-24T13:33:32.386Z,1.50
2023-03-24T13:36:27.499Z,1.58
2023-03-24T13:38:57.897Z,1.35
2023-03-24T13:41:31.238Z,1.50
2023-03-24T13:44:39.031Z,1.33
2023-03-24T13:47:11.846Z,1.90
2023-03-24T13:49:40.626Z,1.50
2023-03-24T13:52:23.543Z,1.73
2023-03-24T13:54:58.084Z,1.60
2023-03-24T13:57:25.250Z,2.03
2023-03-24T14:00:08.651Z,1.70
2023-03-24T14:02:43.030Z,1.95
2023-03-24T14:05:30.147Z,1.73
2023-03-24T14:08:05.889Z,1.98
2023-03-24T14:10:48.063Z,2.00
2023-03-24T14:13:14.505Z,2.20
2023-03-24T14:15:58.300Z,2.40
2023-03-24T14:18:25.200Z,2.15
2023-03-24T14:20:58.320Z,1.92
2023-03-24T14:23:48.161Z,1.60
2023-03-24T14:26:20.750Z,1.90
2023-03-24T14:28:52.841Z,1.70
2023-03-24T14:31:29.076Z,1.77
2023-03-24T14:34:02.264Z,1.67
2023-03-24T14:36:42.121Z,1.67
2023-03-24T14:39:33.122Z,1.38
2023-03-24T14:41:59.660Z,1.80
2023-03-24T14:44:44.752Z,1.50
2023-03-24T14:47:15.457Z,1.00
2023-03-24T14:49:45.214Z,1.10
2023-03-24T14:52:20.826Z,1.10
2023-03-24T14:54:57.810Z,1.42
2023-03-24T14:57:44.627Z,1.40
2023-03-24T15:00:22.599Z,0.85
2023-03-24T15:03:17.857Z,1.38
2023-03-24T15:05:44.513Z,1.38
2023-03-24T15:08:18.896Z,1.50
2023-03-24T15:10:56.577Z,1.27
2023-03-24T15:13:37.291Z,1.50
2023-03-24T15:16:17.628Z,1.20
2023-03-24T15:21:47.065Z,1.48
2023-03-24T15:24:22.826Z,1.52
2023-03-24T15:26:54.462Z,1.77
2023-03-24T15:29:21.141Z,1.55
2023-03-24T15:31:49.059Z,1.27
2023-03-24T15:34:37.538Z,1.48
2023-03-24T15:37:06.135Z,1.67
2023-03-24T15:39:36.265Z,1.50
2023-03-24T15:42:08.405Z,1.60
2023-03-24T15:44:39.410Z,1.80
2023-03-24T15:47:16.936Z,1.77
2023-03-24T15:49:54.892Z,1.58
2023-03-24T15:52:29.017Z,2.35
2023-03-24T15:54:59.480Z,2.00
2023-03-24T15:57:26.887Z,2.10
2023-03-24T15:59:59.530Z,2.40
2023-03-24T16:02:33.092Z,1.92
2023-03-24T16:07:34.455Z,0.40
2023-03-24T16:10:06.489Z,0.40
2023-03-24T16:12:36.698Z,0.50
2023-03-24T16:15:05.657Z,0.30
2023-03-24T16:17:33.232Z,0.30
2023-03-24T16:20:00.073Z,0.50
2023-03-24T16:22:26.605Z,0.20
2023-03-24T16:24:53.377Z,0.20
2023-03-24T16:27:19.861Z,0.68
2023-03-24T16:29:46.382Z,0.70
2023-03-24T16:32:12.834Z,0.70
2023-03-24T16:34:39.387Z,0.60
2023-03-24T16:37:06.022Z,0.45
2023-03-24T16:39:32.605Z,0.77
2023-03-24T16:41:59.125Z,0.65
2023-03-24T16:44:27.596Z,0.75
2023-03-24T16:46:55.431Z,0.65
2023-03-24T16:49:23.606Z,0.80
2023-03-24T16:51:52.535Z,0.80
2023-03-24T16:54:19.991Z,0.75
2023-03-24T16:56:46.555Z,0.70
2023-03-24T16:59:15.460Z,0.73
2023-03-24T17:01:45.857Z,0.77
2023-03-24T17:04:19.374Z,0.70
2023-03-24T17:06:50.747Z,1.10
2023-03-24T17:09:17.348Z,0.95
2023-03-24T17:11:48.389Z,1.10
2023-03-24T17:14:16.677Z,1.00
2023-03-24T17:16:45.365Z,1.20
2023-03-24T17:19:14.220Z,1.20
2023-03-24T17:21:45.760Z,1.27
2023-03-24T17:24:13.614Z,0.88
2023-03-24T17:26:43.807Z,1.08
2023-03-24T17:29:12.693Z,0.77
2023-03-24T17:31:39.971Z,0.60
2023-03-24T17:34:20.804Z,0.50
2023-03-24T17:36:50.297Z,0.68
2023-03-24T17:39:21.461Z,0.55
2023-03-24T17:41:48.383Z,0.60
2023-03-24T17:44:15.094Z,0.80
2023-03-24T17:46:41.577Z,1.73
2023-03-24T17:49:08.526Z,0.73
2023-03-24T17:51:38.591Z,0.95
2023-03-24T17:54:05.653Z,1.10
2023-03-24T17:56:32.464Z,0.90
2023-03-24T17:58:59.113Z,1.10
2023-03-24T18:01:30.278Z,1.15
2023-03-24T18:03:57.584Z,1.25
2023-03-24T18:06:24.347Z,1.17
2023-03-24T18:08:52.199Z,1.50
2023-03-24T18:11:19.029Z,1.60
2023-03-24T18:13:45.569Z,2.10
2023-03-24T18:16:20.819Z,1.90
2023-03-24T18:18:52.268Z,1.98
2023-03-24T18:21:19.715Z,1.80
2023-03-24T18:23:47.360Z,1.67
2023-03-24T18:26:16.379Z,2.20
2023-03-24T18:28:45.598Z,1.70
2023-03-24T18:31:18.831Z,2.22
2023-03-24T18:33:50.340Z,2.42
2023-03-24T18:36:26.266Z,2.75
2023-03-24T18:38:58.450Z,2.83
2023-03-24T18:41:27.106Z,3.17
2023-03-24T18:43:58.784Z,3.00
2023-03-24T18:46:26.492Z,3.67
2023-03-24T18:48:53.627Z,4.00
2023-03-24T18:51:21.348Z,4.03
2023-03-24T18:53:49.593Z,4.30
2023-03-24T18:56:16.846Z,4.03
2023-03-24T18:58:44.217Z,4.70
2023-03-24T19:01:13.517Z,4.70
2023-03-24T19:03:43.131Z,5.05
2023-03-24T19:06:12.563Z,6.50
2023-03-24T19:08:44.595Z,6.50
2023-03-24T19:11:13.258Z,6.57
2023-03-24T19:13:41.049Z,6.15
2023-03-24T19:16:09.168Z,7.40
2023-03-24T19:18:36.960Z,6.45
2023-03-24T19:21:04.637Z,7.40
2023-03-24T19:23:31.526Z,7.45
2023-03-24T19:25:58.261Z,7.45
2023-03-24T19:28:27.203Z,7.55
2023-03-24T19:30:53.777Z,8.07
2023-03-24T19:33:20.529Z,8.38
2023-03-24T19:35:48.821Z,8.35
2023-03-24T19:38:17.072Z,8.18
2023-03-24T19:40:44.961Z,8.40
2023-03-24T19:43:11.740Z,8.38
2023-03-24T19:45:42.777Z,9.30
2023-03-24T19:48:10.677Z,8.25
2023-03-24T19:50:38.657Z,9.05
2023-03-24T19:53:07.394Z,8.45
2023-03-24T19:55:33.976Z,8.00
2023-03-24T19:58:00.492Z,8.32
2023-03-24T20:00:27.194Z,8.43
2023-03-24T20:02:54.358Z,7.80
2023-03-24T20:05:21.368Z,7.28
2023-03-24T20:07:48.075Z,6.65
2023-03-24T20:10:14.614Z,6.93
2023-03-24T20:12:41.532Z,7.60
2023-03-24T20:15:08.651Z,8.00
2023-03-24T20:17:37.628Z,9.10
2023-03-24T20:20:07.557Z,8.13
2023-03-24T20:22:34.816Z,8.68
2023-03-24T20:25:01.285Z,8.75
2023-03-24T20:27:27.750Z,8.10
2023-03-24T20:29:54.578Z,7.47
2023-03-24T20:32:21.439Z,7.90
2023-03-24T20:34:47.915Z,7.85
2023-03-24T20:37:15.541Z,8.43
2023-03-24T20:39:43.542Z,8.25
2023-03-24T20:42:11.390Z,8.25
2023-03-24T20:44:37.970Z,8.23
2023-03-24T20:47:04.726Z,7.93
2023-03-24T20:49:32.520Z,7.80
2023-03-24T20:51:59.035Z,8.43
2023-03-24T20:54:25.605Z,7.82
2023-03-24T20:56:52.548Z,8.60
2023-03-24T20:59:19.559Z,10.05
2023-03-24T21:01:48.609Z,11.02
2023-03-24T21:04:16.661Z,11.77
2023-03-24T21:06:43.976Z,12.15
2023-03-24T21:09:10.878Z,9.75
2023-03-24T21:11:37.809Z,6.78
2023-03-24T21:14:04.477Z,6.35
2023-03-24T21:16:33.996Z,6.53
2023-03-24T21:19:03.673Z,6.13
2023-03-24T21:21:31.889Z,6.35
2023-03-24T21:23:58.564Z,5.55
2023-03-24T21:26:25.442Z,6.00
2023-03-24T21:28:55.181Z,5.25
2023-03-24T21:31:27.513Z,5.75
2023-03-24T21:33:55.800Z,5.10
2023-03-24T21:36:24.507Z,5.90
2023-03-24T21:38:51.738Z,6.20
2023-03-24T21:41:19.784Z,5.60
2023-03-24T21:43:46.924Z,5.55
2023-03-24T21:46:20.740Z,6.65
2023-03-24T21:48:52.259Z,6.50
2023-03-24T21:51:24.493Z,6.13
2023-03-24T21:53:52.405Z,6.20
2023-03-24T21:56:20.290Z,5.90
2023-03-24T21:58:49.136Z,5.95
2023-03-24T22:01:15.941Z,5.30
2023-03-24T22:03:42.461Z,4.95
2023-03-24T22:06:11.841Z,5.78
2023-03-24T22:08:39.160Z,5.57
2023-03-24T22:11:06.292Z,5.70
2023-03-24T22:13:33.786Z,5.30
2023-03-24T22:16:03.699Z,4.97
2023-03-24T22:18:32.596Z,4.68
2023-03-24T22:21:06.866Z,4.38
2023-03-24T22:23:37.899Z,3.63
2023-03-24T22:26:10.299Z,3.20
2023-03-24T22:28:37.624Z,3.03
2023-03-24T22:31:12.970Z,3.15
2023-03-24T22:33:40.674Z,2.70
2023-03-24T22:36:07.892Z,2.60
2023-03-24T22:38:35.364Z,2.58
2023-03-24T22:41:10.000Z,2.42
2023-03-24T22:43:39.342Z,2.17
2023-03-24T22:46:06.581Z,1.95
2023-03-24T22:48:33.192Z,2.10
2023-03-24T22:50:59.651Z,1.92
2023-03-24T22:53:26.203Z,1.73
2023-03-24T22:55:53.308Z,1.88
2023-03-24T22:58:20.405Z,1.30
2023-03-24T23:00:48.861Z,1.95
2023-03-24T23:03:15.678Z,1.58
2023-03-24T23:05:43.786Z,1.67
2023-03-24T23:08:11.763Z,1.70
2023-03-24T23:10:39.990Z,1.63
2023-03-24T23:13:07.005Z,1.58
2023-03-24T23:15:33.602Z,1.75
2023-03-24T23:18:00.302Z,1.20
2023-03-24T23:20:28.024Z,1.25
2023-03-24T23:22:54.769Z,1.27
2023-03-24T23:25:21.462Z,0.90
2023-03-24T23:27:48.281Z,1.08
2023-03-24T23:30:16.037Z,1.30
2023-03-24T23:32:44.078Z,1.10
2023-03-24T23:35:11.603Z,1.40
2023-03-24T23:37:39.476Z,1.23
2023-03-24T23:40:14.668Z,0.95
2023-03-24T23:42:44.261Z,1.08
2023-03-24T23:45:14.316Z,0.70
2023-03-24T23:47:47.281Z,0.90
2023-03-24T23:50:17.022Z,0.90
2023-03-24T23:52:46.148Z,0.70
2023-03-24T23:55:15.077Z,0.60
2023-03-24T23:57:42.616Z,0.80
